M I D A S
Marine Information and Data Acquisition System
Tripno 341 of the Zeeleeuw from 2002-09-25 06:46:03 to 2002-09-25 12:56:14
Back to CruiseResearch ActivitiesStationsMapUnderway DataData graphs

EquipmentUnitsComments
TimeDGPSUTC
LatitudeDGPSDM.mWGS84
LongitudeDGPSDM.mWGS84
SpeedMeteo Stationm/sRelative wind speed
DirectionMeteo StationdegRelative wind direction
TemperatureMeteo Stationdeg CelciusAir temperature
PressureMeteo StationPaAtmospheric pressure
HumidityMeteo Station%Relative humidity
Missing or incorrect values are displayed as -999
Metereological data collected by the RV Zeeleeuw from 2002-09-25 06:46:03 to 2002-09-25 12:56:14
Time Latitude Longitude Speed Direction Temperature Pressure Humidity
2002-09-25 06:47 51°13.668 2°55.947 3.3 1 14.9 101900 86
2002-09-25 06:48 51°13.669 2°55.947 6.6 19 14.9 101890 86
2002-09-25 06:49 51°13.669 2°55.947 7 9 14.9 101900 85
2002-09-25 06:50 51°13.669 2°55.947 6.6 354 15 101890 85
2002-09-25 06:51 51°13.668 2°55.947 3 344 15 101890 85
2002-09-25 06:52 51°13.668 2°55.947 5.3 15 15.1 101890 84
2002-09-25 06:53 51°13.668 2°55.947 5.2 350 15.1 101900 84
2002-09-25 06:54 51°13.668 2°55.947 7.3 18 15.2 101910 84
2002-09-25 06:55 51°13.667 2°55.948 5.9 357 15.2 101900 84
2002-09-25 06:56 51°13.667 2°55.948 7.3 33 15.2 101900 84
2002-09-25 06:57 51°13.668 2°55.948 8.4 12 15.2 101900 83
2002-09-25 06:58 51°13.667 2°55.948 5.4 39 15.2 101900 83
2002-09-25 06:59 51°13.668 2°55.948 3.6 348 15.2 101900 83
2002-09-25 07:00 51°13.667 2°55.947 7.1 349 15.3 101910 83
2002-09-25 07:01 51°13.665 2°55.946 4.4 346 15.3 101910 83
2002-09-25 07:02 51°13.671 2°55.91 7.2 338 15.4 101910 82
2002-09-25 07:03 51°13.679 2°55.832 7.3 355 15.5 101920 82
2002-09-25 07:04 51°13.686 2°55.799 4.5 335 15.5 101930 81
2002-09-25 07:05 51°13.679 2°55.785 12.3 300 15.5 101920 81
2002-09-25 07:06 51°13.695 2°55.812 11.3 266 15.6 101880 80
2002-09-25 07:07 51°13.686 2°55.805 10.2 256 15.6 101900 80
2002-09-25 07:08 51°13.694 2°55.81 8.5 230 15.7 101890 80
2002-09-25 07:09 51°13.689 2°55.821 8.8 212 15.7 101900 80
2002-09-25 07:10 51°13.68 2°55.819 8.9 201 15.8 101900 79
2002-09-25 07:11 51°13.734 2°55.714 9.6 209 15.8 101890 78
2002-09-25 07:12 51°13.83 2°55.615 12.8 227 15.9 101880 79
2002-09-25 07:13 51°13.948 2°55.545 15.3 225 15.9 101890 79
2002-09-25 07:14 51°14.058 2°55.469 15.8 219 15.9 101870 78
2002-09-25 07:15 51°14.17 2°55.373 17.8 210 16 101890 79
2002-09-25 07:16 51°14.265 2°55.244 8.7 195 16 101900 79
2002-09-25 07:17 51°14.343 2°55.096 11.5 187 16 101900 78
2002-09-25 07:18 51°14.387 2°54.89 11.7 160 16 101880 79
2002-09-25 07:19 51°14.377 2°54.584 11.2 158 16 101870 77
2002-09-25 07:20 51°14.315 2°54.19 11.7 164 16.1 101890 77
2002-09-25 07:21 51°14.248 2°53.824 12.5 166 16.1 101880 78
2002-09-25 07:22 51°14.151 2°53.468 10 145 16.1 101900 77
2002-09-25 07:23 51°14.03 2°53.119 9.1 147 16.1 101920 77
2002-09-25 07:24 51°13.907 2°52.777 10.5 157 16.1 101900 77
2002-09-25 07:25 51°13.789 2°52.429 9.6 152 16.1 101900 77
2002-09-25 07:26 51°13.664 2°52.077 8.6 151 16.1 101910 77
2002-09-25 07:27 51°13.532 2°51.726 9.2 151 16.1 101910 78
2002-09-25 07:28 51°13.4 2°51.376 9.2 149 16.1 101900 77
2002-09-25 07:29 51°13.273 2°51.022 9.1 142 16.1 101920 77
2002-09-25 07:30 51°13.145 2°50.676 9.3 156 16 101920 76
2002-09-25 07:31 51°13.01 2°50.322 9.6 149 16.2 101910 78
2002-09-25 07:32 51°12.877 2°49.973 9.3 163 16.1 101920 78
2002-09-25 07:33 51°12.747 2°49.627 8.9 158 16.1 101920 78
2002-09-25 07:34 51°12.61 2°49.27 12.2 151 16.2 101910 78
2002-09-25 07:35 51°12.472 2°48.924 7.9 160 16.1 101910 78
2002-09-25 07:36 51°12.337 2°48.579 9.5 148 16.1 101920 78
2002-09-25 07:37 51°12.206 2°48.239 9 160 16.1 101920 78
2002-09-25 07:38 51°12.079 2°47.881 8.5 155 16.1 101930 78
2002-09-25 07:39 51°11.961 2°47.522 10.5 159 16.1 101930 78
2002-09-25 07:40 51°11.858 2°47.16 12.6 157 16.1 101910 78
2002-09-25 07:41 51°11.758 2°46.783 10.4 162 16.1 101930 77
2002-09-25 07:42 51°11.662 2°46.408 11.2 160 16.1 101920 77
2002-09-25 07:43 51°11.576 2°46.029 13.1 164 16.2 101930 78
2002-09-25 07:44 51°11.492 2°45.657 13 150 16.2 101920 77
2002-09-25 07:45 51°11.404 2°45.27 11.9 161 16.2 101920 78
2002-09-25 07:46 51°11.315 2°44.891 9.9 157 16.1 101920 77
2002-09-25 07:47 51°11.223 2°44.519 11.8 153 16.1 101920 77
2002-09-25 07:48 51°11.134 2°44.135 11.6 160 16.1 101920 77
2002-09-25 07:49 51°11.065 2°43.747 9.3 151 16.1 101940 77
2002-09-25 07:50 51°10.997 2°43.357 11.5 154 16.2 101940 77
2002-09-25 07:51 51°10.93 2°42.972 10.2 151 16.2 101930 77
2002-09-25 07:52 51°10.86 2°42.576 10.5 160 16.2 101930 77
2002-09-25 07:53 51°10.791 2°42.188 11.9 159 16.2 101920 77
2002-09-25 07:54 51°10.724 2°41.798 11.6 171 16.2 101920 77
2002-09-25 07:55 51°10.654 2°41.41 13.3 157 16.2 101910 77
2002-09-25 07:56 51°10.585 2°41.018 12.9 170 16.2 101930 77
2002-09-25 07:57 51°10.517 2°40.623 12.3 158 16.2 101930 78
2002-09-25 07:58 51°10.447 2°40.239 9.7 162 16.2 101930 78
2002-09-25 07:59 51°10.38 2°39.842 10.4 164 16.2 101930 77
2002-09-25 08:00 51°10.312 2°39.45 10.7 161 16.1 101940 77
2002-09-25 08:01 51°10.247 2°39.061 13.3 171 16.2 101940 77
2002-09-25 08:02 51°10.19 2°38.674 13.3 164 16.2 101940 78
2002-09-25 08:03 51°10.129 2°38.272 13.2 161 16.2 101930 78
2002-09-25 08:04 51°10.073 2°37.876 13.3 172 16.2 101940 78
2002-09-25 08:05 51°10.024 2°37.48 10.4 173 16.2 101930 78
2002-09-25 08:06 51°9.978 2°37.081 12.3 169 16.1 101930 78
2002-09-25 08:07 51°9.94 2°36.683 11.9 161 16.1 101940 78
2002-09-25 08:08 51°9.938 2°36.284 15 179 16.1 101920 78
2002-09-25 08:09 51°9.991 2°35.903 15.5 198 16.2 101910 78
2002-09-25 08:10 51°10.121 2°35.595 17.1 210 16.2 101900 79
2002-09-25 08:11 51°10.298 2°35.389 18.2 225 16.2 101940 79
2002-09-25 08:12 51°10.5 2°35.412 18.9 246 16.2 101920 79
2002-09-25 08:13 51°10.673 2°35.585 18 256 16.1 101920 79
2002-09-25 08:14 51°10.836 2°35.782 18.8 257 16.2 101920 79
2002-09-25 08:15 51°10.996 2°35.982 16.5 256 16.1 101920 78
2002-09-25 08:16 51°11.16 2°36.18 16.9 256 16.2 101910 78
2002-09-25 08:17 51°11.329 2°36.361 16.7 252 16.2 101930 77
2002-09-25 08:18 51°11.498 2°36.536 19.1 251 16.1 101890 77
2002-09-25 08:19 51°11.668 2°36.709 19.3 253 16.2 101900 77
2002-09-25 08:20 51°11.832 2°36.882 18.4 260 16.2 101920 77
2002-09-25 08:21 51°11.999 2°37.055 18.9 256 16.2 101910 78
2002-09-25 08:22 51°12.169 2°37.23 17.7 253 16.2 101930 78
2002-09-25 08:23 51°12.337 2°37.406 17.2 246 16.3 101930 78
2002-09-25 08:24 51°12.505 2°37.581 17.4 250 16.3 101910 77
2002-09-25 08:25 51°12.676 2°37.755 16.6 251 16.2 101910 76
2002-09-25 08:26 51°12.845 2°37.928 16.7 257 16.3 101930 76
2002-09-25 08:27 51°13.01 2°38.1 17.1 259 16.3 101920 76
2002-09-25 08:28 51°13.179 2°38.272 15.2 250 16.4 101920 76
2002-09-25 08:29 51°13.355 2°38.429 19.9 247 16.3 101930 75
2002-09-25 08:30 51°13.543 2°38.557 18.5 248 16.2 101910 75
2002-09-25 08:31 51°13.733 2°38.672 17.9 242 16.2 101940 74
2002-09-25 08:32 51°13.922 2°38.784 17.7 247 16.3 101920 75
2002-09-25 08:33 51°14.12 2°38.783 15.3 221 16.3 101940 75
2002-09-25 08:34 51°14.276 2°38.549 13.8 201 16.4 101940 76
2002-09-25 08:35 51°14.272 2°38.166 9.4 161 16.3 101930 78
2002-09-25 08:36 51°14.145 2°37.814 10.4 162 16.3 101950 78
2002-09-25 08:37 51°14.015 2°37.456 11 163 16.2 101940 78
2002-09-25 08:38 51°13.902 2°37.096 12.3 158 16.2 101970 78
2002-09-25 08:39 51°13.781 2°36.724 9.6 166 16.1 101960 77
2002-09-25 08:40 51°13.663 2°36.361 9.4 160 16.1 101970 79
2002-09-25 08:41 51°13.545 2°35.995 8.9 169 16.1 101950 78
2002-09-25 08:42 51°13.422 2°35.633 9.2 157 16.1 101950 77
2002-09-25 08:43 51°13.299 2°35.27 9.1 158 16.1 101960 78
2002-09-25 08:44 51°13.172 2°34.912 8.2 166 16.1 101950 77
2002-09-25 08:45 51°13.052 2°34.549 8.6 156 16.2 101960 78
2002-09-25 08:46 51°12.933 2°34.182 10 172 16.2 101960 78
2002-09-25 08:47 51°12.817 2°33.815 10.4 156 16.2 101970 78
2002-09-25 08:48 51°12.703 2°33.448 10 169 16.2 101950 78
2002-09-25 08:49 51°12.584 2°33.078 10.7 167 16.2 101970 78
2002-09-25 08:50 51°12.469 2°32.712 9.7 176 16.1 101960 78
2002-09-25 08:51 51°12.358 2°32.342 10.6 173 16.1 101960 78
2002-09-25 08:52 51°12.246 2°31.968 12.1 167 16.1 101960 78
2002-09-25 08:53 51°12.135 2°31.596 9.3 168 16 101950 76
2002-09-25 08:54 51°12.018 2°31.227 10.4 163 16 101960 77
2002-09-25 08:55 51°11.904 2°30.852 10.8 161 16 101970 75
2002-09-25 08:56 51°11.787 2°30.478 10.6 163 16.1 101980 77
2002-09-25 08:57 51°11.67 2°30.105 8.9 173 16.1 101960 76
2002-09-25 08:58 51°11.554 2°29.727 9.6 170 16.1 101980 77
2002-09-25 08:59 51°11.44 2°29.351 8.6 168 16.3 101970 78
2002-09-25 09:00 51°11.329 2°28.969 10.6 165 16.2 101980 78
2002-09-25 09:01 51°11.229 2°28.578 9.2 181 16.2 101970 78
2002-09-25 09:02 51°11.177 2°28.169 9.9 195 16.2 101960 78
2002-09-25 09:03 51°11.154 2°27.757 12.1 192 16.2 101960 78
2002-09-25 09:04 51°11.149 2°27.346 11.6 179 16.2 101960 78
2002-09-25 09:05 51°11.148 2°26.935 10.9 189 16.3 101950 79
2002-09-25 09:06 51°11.142 2°26.526 12.1 180 16.1 101940 78
2002-09-25 09:07 51°11.139 2°26.118 12.2 189 16.1 101970 79
2002-09-25 09:08 51°11.135 2°25.718 12.7 181 16 101950 78
2002-09-25 09:09 51°11.174 2°25.329 14.9 200 16.1 101960 78
2002-09-25 09:10 51°11.322 2°25.07 18 231 16.1 101940 78
2002-09-25 09:11 51°11.522 2°25.016 17.8 247 16.1 101970 78
2002-09-25 09:12 51°11.718 2°25.08 15.9 254 16.1 101950 79
2002-09-25 09:13 51°11.909 2°25.17 15.7 253 16.1 101950 79
2002-09-25 09:14 51°12.079 2°25.321 17.3 261 16.1 101960 78
2002-09-25 09:15 51°12.24 2°25.5 17.4 258 16.1 101930 79
2002-09-25 09:16 51°12.392 2°25.693 17.1 263 16 101940 77
2002-09-25 09:17 51°12.548 2°25.877 16.6 264 16.1 101950 77
2002-09-25 09:18 51°12.702 2°26.063 17.5 263 16.1 101950 78
2002-09-25 09:19 51°12.857 2°26.245 18.6 263 16.2 101940 78
2002-09-25 09:20 51°13.011 2°26.422 16.4 261 16.2 101960 78
2002-09-25 09:21 51°13.165 2°26.601 17.2 256 16.2 101930 78
2002-09-25 09:22 51°13.321 2°26.78 17.1 261 16.1 101940 78
2002-09-25 09:23 51°13.475 2°26.963 17 265 16.2 101930 78
2002-09-25 09:24 51°13.621 2°27.162 16 255 16.1 101950 77
2002-09-25 09:25 51°13.769 2°27.36 14.9 256 16.1 101960 77
2002-09-25 09:26 51°13.916 2°27.56 14.6 265 16.1 101940 77
2002-09-25 09:27 51°14.053 2°27.779 16.6 265 16.1 101920 77
2002-09-25 09:28 51°14.187 2°27.991 15.9 260 16.2 101950 78
2002-09-25 09:29 51°14.323 2°28.201 18.1 263 16.1 101940 77
2002-09-25 09:30 51°14.462 2°28.413 16.9 266 16.2 101940 77
2002-09-25 09:31 51°14.599 2°28.628 17.4 270 16.2 101940 77
2002-09-25 09:32 51°14.735 2°28.844 16 267 16.2 101920 77
2002-09-25 09:33 51°14.862 2°29.075 15.5 268 16.2 101950 78
2002-09-25 09:34 51°14.987 2°29.311 16.4 269 16.3 101920 77
2002-09-25 09:35 51°15.109 2°29.549 15.4 267 16.2 101960 78
2002-09-25 09:36 51°15.232 2°29.783 16.8 273 16.2 101930 77
2002-09-25 09:37 51°15.357 2°30.019 17 270 16.2 101920 77
2002-09-25 09:38 51°15.488 2°30.252 16.1 264 16.2 101930 77
2002-09-25 09:39 51°15.622 2°30.479 16.4 273 16.2 101950 77
2002-09-25 09:40 51°15.751 2°30.706 14.8 269 16.2 101920 77
2002-09-25 09:41 51°15.884 2°30.932 17.4 268 16.2 101930 77
2002-09-25 09:42 51°16.022 2°31.154 15.6 263 16.2 101940 78
2002-09-25 09:43 51°16.163 2°31.371 16.9 270 16.2 101950 78
2002-09-25 09:44 51°16.306 2°31.591 16.7 261 16.2 101950 78
2002-09-25 09:45 51°16.449 2°31.816 15.9 270 16.2 101950 79
2002-09-25 09:46 51°16.594 2°32.041 14 271 16.2 101940 79
2002-09-25 09:47 51°16.738 2°32.268 15.1 269 16.2 101920 78
2002-09-25 09:48 51°16.88 2°32.493 15.3 266 16.2 101930 79
2002-09-25 09:49 51°17.022 2°32.717 15.6 272 16.1 101930 78
2002-09-25 09:50 51°17.165 2°32.945 15.5 270 16.1 101920 79
2002-09-25 09:51 51°17.309 2°33.168 13.7 271 16.1 101930 78
2002-09-25 09:52 51°17.452 2°33.392 13.7 266 16.1 101930 78
2002-09-25 09:53 51°17.595 2°33.614 15.8 269 16.1 101930 79
2002-09-25 09:54 51°17.735 2°33.837 13.8 268 16.1 101950 79
2002-09-25 09:55 51°17.87 2°34.063 15.5 266 16.1 101920 78
2002-09-25 09:56 51°18.008 2°34.289 15.3 270 16.1 101940 78
2002-09-25 09:57 51°18.149 2°34.513 16.1 267 16.1 101940 78
2002-09-25 09:58 51°18.283 2°34.737 16.2 274 16.1 101930 77
2002-09-25 09:59 51°18.417 2°34.966 15.1 264 16.1 101940 78
2002-09-25 10:00 51°18.55 2°35.201 17.4 265 16.2 101940 78
2002-09-25 10:01 51°18.682 2°35.434 16 271 16.2 101920 77
2002-09-25 10:02 51°18.813 2°35.67 15.2 269 16.2 101930 77
2002-09-25 10:03 51°18.945 2°35.905 15.5 269 16.2 101920 78
2002-09-25 10:04 51°19.074 2°36.139 16.6 272 16.2 101950 78
2002-09-25 10:05 51°19.205 2°36.377 13 272 16.2 101920 78
2002-09-25 10:06 51°19.333 2°36.613 16 274 16.2 101920 78
2002-09-25 10:07 51°19.463 2°36.848 14.8 274 16.2 101910 78
2002-09-25 10:08 51°19.587 2°37.083 16.1 272 16.2 101950 79
2002-09-25 10:09 51°19.714 2°37.32 15.8 275 16.1 101910 78
2002-09-25 10:10 51°19.845 2°37.556 15.4 272 16.1 101910 78
2002-09-25 10:11 51°19.976 2°37.785 16.1 266 16.1 101920 78
2002-09-25 10:12 51°20.118 2°37.997 14.7 277 16.1 101920 78
2002-09-25 10:13 51°20.26 2°38.209 16.7 274 16.1 101910 78
2002-09-25 10:14 51°20.404 2°38.412 16.6 262 16.2 101910 79
2002-09-25 10:15 51°20.565 2°38.597 16.9 260 16.1 101910 78
2002-09-25 10:16 51°20.742 2°38.732 15.1 256 16.1 101890 78
2002-09-25 10:17 51°20.919 2°38.858 15.8 260 16.1 101900 77
2002-09-25 10:18 51°21.093 2°39.002 17.7 268 16.1 101910 78
2002-09-25 10:19 51°21.265 2°39.145 16.7 259 16.1 101910 78
2002-09-25 10:20 51°21.451 2°39.222 18.1 248 16.1 101940 78
2002-09-25 10:21 51°21.653 2°39.251 15.6 251 16.1 101910 77
2002-09-25 10:22 51°21.85 2°39.31 17.5 259 16.2 101920 78
2002-09-25 10:23 51°22.042 2°39.374 15.3 252 16.2 101910 78
2002-09-25 10:24 51°22.234 2°39.44 18.4 251 16.1 101920 78
2002-09-25 10:25 51°22.43 2°39.5 17.2 253 16.2 101940 79
2002-09-25 10:26 51°22.627 2°39.566 16.7 253 16.1 101930 78
2002-09-25 10:27 51°22.82 2°39.636 17.9 254 16.1 101880 79
2002-09-25 10:28 51°23.016 2°39.711 17.1 258 16.1 101900 79
2002-09-25 10:29 51°23.206 2°39.807 16.7 259 16.1 101920 79
2002-09-25 10:30 51°23.397 2°39.902 15.6 258 16.1 101870 78
2002-09-25 10:31 51°23.591 2°39.954 14.1 251 16.1 101920 78
2002-09-25 10:32 51°23.786 2°39.999 16.1 249 16.2 101890 78
2002-09-25 10:33 51°23.985 2°40.05 16.8 252 16.2 101900 79
2002-09-25 10:34 51°24.179 2°40.098 15.7 252 16.1 101910 78
2002-09-25 10:35 51°24.378 2°40.131 17.3 248 16.2 101910 79
2002-09-25 10:36 51°24.579 2°40.159 18.3 249 16.1 101890 78
2002-09-25 10:37 51°24.775 2°40.185 17.3 241 16.1 101930 79
2002-09-25 10:38 51°24.974 2°40.215 19.1 249 16.1 101890 78
2002-09-25 10:39 51°25.171 2°40.246 16.9 250 16 101900 77
2002-09-25 10:40 51°25.367 2°40.276 17.7 242 16.1 101900 78
2002-09-25 10:41 51°25.56 2°40.297 18.6 249 16.1 101880 77
2002-09-25 10:42 51°25.756 2°40.314 14.9 252 16 101900 78
2002-09-25 10:43 51°25.955 2°40.332 17.5 249 16 101890 78
2002-09-25 10:44 51°26.122 2°40.467 15 269 16 101900 77
2002-09-25 10:45 51°26.229 2°40.712 14.6 277 16 101900 78
2002-09-25 10:46 51°26.34 2°40.958 14.4 284 16 101910 77
2002-09-25 10:47 51°26.423 2°41.237 15.7 281 16.1 101890 78
2002-09-25 10:48 51°26.503 2°41.521 14.7 275 16 101910 77
2002-09-25 10:49 51°26.584 2°41.808 14 283 16 101890 77
2002-09-25 10:50 51°26.66 2°42.095 13.4 286 16.1 101900 78
2002-09-25 10:51 51°26.744 2°42.383 13.2 282 16.1 101890 77
2002-09-25 10:52 51°26.827 2°42.672 16.9 279 16.1 101890 78
2002-09-25 10:53 51°26.881 2°42.98 13.1 302 16.1 101890 77
2002-09-25 10:54 51°26.886 2°43.32 12.4 299 16.1 101920 77
2002-09-25 10:55 51°26.876 2°43.66 7.2 302 16.2 101920 78
2002-09-25 10:56 51°26.739 2°43.941 1.4 357 16.2 101960 77
2002-09-25 10:57 51°26.559 2°44.176 2.1 346 16.2 101940 78
2002-09-25 10:58 51°26.385 2°44.429 1.6 346 16.1 101940 77
2002-09-25 10:59 51°26.199 2°44.668 1.5 321 16.1 101940 77
2002-09-25 11:00 51°26.017 2°44.908 2.1 315 16 101950 77
2002-09-25 11:01 51°25.83 2°45.144 2.2 358 16 101940 77
2002-09-25 11:02 51°25.624 2°45.344 3 331 16.1 101940 77
2002-09-25 11:03 51°25.423 2°45.548 1.9 353 16.1 101950 77
2002-09-25 11:04 51°25.217 2°45.75 2 346 16.1 101940 77
2002-09-25 11:05 51°25.016 2°45.958 1.5 332 16.1 101940 77
2002-09-25 11:06 51°24.814 2°46.162 0.5 316 16.3 101940 78
2002-09-25 11:07 51°24.663 2°46.426 8.3 305 16.2 101930 77
2002-09-25 11:08 51°24.724 2°46.721 16.7 268 16.3 101890 77
2002-09-25 11:09 51°24.822 2°47.012 13.7 281 16.2 101900 76
2002-09-25 11:10 51°24.925 2°47.303 14.3 279 16.2 101870 76
2002-09-25 11:11 51°25.023 2°47.601 15.2 277 16.2 101880 76
2002-09-25 11:12 51°25.118 2°47.89 13.4 273 16.2 101880 75
2002-09-25 11:13 51°25.214 2°48.186 14.2 275 16.2 101900 75
2002-09-25 11:14 51°25.308 2°48.484 13.2 281 16.2 101890 75
2002-09-25 11:15 51°25.399 2°48.779 13.2 275 16.3 101880 75
2002-09-25 11:16 51°25.499 2°49.065 13 275 16.3 101890 75
2002-09-25 11:17 51°25.605 2°49.341 15.6 272 16.3 101870 76
2002-09-25 11:18 51°25.705 2°49.621 16.3 272 16.3 101860 75
2002-09-25 11:19 51°25.8 2°49.902 14.2 276 16.2 101870 75
2002-09-25 11:20 51°25.9 2°50.187 15.2 276 16.2 101880 75
2002-09-25 11:21 51°26.066 2°50.222 17.5 225 16.3 101880 75
2002-09-25 11:22 51°26.245 2°50.051 17.2 229 16.3 101870 76
2002-09-25 11:23 51°26.427 2°49.881 18.5 230 16.2 101860 76
2002-09-25 11:24 51°26.61 2°49.711 17.6 228 16.2 101860 77
2002-09-25 11:25 51°26.793 2°49.541 17.7 229 16.1 101880 77
2002-09-25 11:26 51°26.974 2°49.366 17.3 227 16.1 101880 76
2002-09-25 11:27 51°27.156 2°49.192 16.5 232 16 101850 76
2002-09-25 11:28 51°27.339 2°49.021 17.1 227 16.1 101870 77
2002-09-25 11:29 51°27.52 2°48.85 14.6 227 16 101860 77
2002-09-25 11:30 51°27.709 2°48.684 16.9 227 16 101890 76
2002-09-25 11:31 51°27.896 2°48.516 17.4 226 16 101870 76
2002-09-25 11:32 51°28.084 2°48.355 16.3 231 16 101870 77
2002-09-25 11:33 51°28.271 2°48.191 16.3 235 16 101870 77
2002-09-25 11:34 51°28.455 2°48.222 16.3 271 16 101870 77
2002-09-25 11:35 51°28.546 2°48.51 11.2 285 16 101870 77
2002-09-25 11:36 51°28.634 2°48.805 13.9 281 16.1 101860 77
2002-09-25 11:37 51°28.725 2°49.107 14.8 281 16.1 101890 77
2002-09-25 11:38 51°28.813 2°49.404 14.8 286 16.1 101880 77
2002-09-25 11:39 51°28.898 2°49.706 14.4 284 16.1 101870 77
2002-09-25 11:40 51°28.979 2°50.004 11.5 282 16.1 101870 77
2002-09-25 11:41 51°29.065 2°50.309 13.8 286 16.1 101880 77
2002-09-25 11:42 51°29.152 2°50.616 13.3 278 16 101870 77
2002-09-25 11:43 51°29.239 2°50.92 11.6 292 16.1 101890 77
2002-09-25 11:44 51°29.325 2°51.233 13.5 283 16.1 101870 78
2002-09-25 11:45 51°29.402 2°51.55 11.2 285 16.1 101880 77
2002-09-25 11:46 51°29.48 2°51.865 11.6 280 16 101870 77
2002-09-25 11:47 51°29.454 2°52.199 1.7 344 16.1 101890 77
2002-09-25 11:48 51°29.268 2°52.427 1.9 355 16.1 101920 78
2002-09-25 11:49 51°29.051 2°52.583 1.3 150 16.1 101920 77
2002-09-25 11:50 51°28.823 2°52.725 1.4 113 16.2 101920 77
2002-09-25 11:51 51°28.597 2°52.877 0.9 111 16.1 101900 76
2002-09-25 11:52 51°28.375 2°53.023 1.7 115 16 101910 77
2002-09-25 11:53 51°28.148 2°53.171 0.6 357 16.1 101910 77
2002-09-25 11:54 51°27.923 2°53.318 0.7 302 16.2 101910 77
2002-09-25 11:55 51°27.697 2°53.467 0.8 274 16.2 101910 77
2002-09-25 11:56 51°27.474 2°53.627 2 15 16.3 101900 77
2002-09-25 11:57 51°27.247 2°53.771 1 96 16.2 101910 76
2002-09-25 11:58 51°27.02 2°53.916 1.6 77 16.2 101910 76
2002-09-25 11:59 51°26.794 2°54.05 0.5 258 16.2 101910 77
2002-09-25 12:00 51°26.567 2°54.185 1.6 110 16.4 101900 77
2002-09-25 12:01 51°26.338 2°54.32 1.1 348 16.4 101910 77
2002-09-25 12:02 51°26.113 2°54.455 1.9 97 16.4 101910 76
2002-09-25 12:03 51°25.88 2°54.578 1.1 90 16.3 101900 76
2002-09-25 12:04 51°25.639 2°54.64 2.7 100 16.3 101910 76
2002-09-25 12:05 51°25.395 2°54.699 2 165 16.2 101900 76
2002-09-25 12:06 51°25.149 2°54.766 3.8 125 16.2 101900 77
2002-09-25 12:07 51°24.903 2°54.843 3 99 16.2 101900 77
2002-09-25 12:08 51°24.657 2°54.916 2 81 16.1 101900 77
2002-09-25 12:09 51°24.421 2°54.997 2.8 113 16.1 101910 77
2002-09-25 12:10 51°24.179 2°55.066 2.7 125 16.1 101900 77
2002-09-25 12:11 51°23.938 2°55.145 2.9 102 16.2 101900 77
2002-09-25 12:12 51°23.697 2°55.216 2.8 99 16.2 101910 77
2002-09-25 12:13 51°23.457 2°55.29 2.1 132 16.1 101900 77
2002-09-25 12:14 51°23.22 2°55.361 1.6 81 16.2 101890 77
2002-09-25 12:15 51°22.983 2°55.44 1.6 159 16.1 101900 77
2002-09-25 12:16 51°22.743 2°55.523 1.7 102 16.1 101900 77
2002-09-25 12:17 51°22.508 2°55.598 1.8 112 16.1 101900 77
2002-09-25 12:18 51°22.266 2°55.666 2.7 121 16.1 101900 78
2002-09-25 12:19 51°22.028 2°55.752 1.3 82 16.2 101890 78
2002-09-25 12:20 51°21.789 2°55.831 2.6 88 16.2 101890 78
2002-09-25 12:21 51°21.552 2°55.911 2.2 87 16.2 101890 77
2002-09-25 12:22 51°21.31 2°55.977 3.1 138 16.1 101890 77
2002-09-25 12:23 51°21.074 2°55.891 6.6 149 16.1 101890 77
2002-09-25 12:24 51°20.853 2°55.74 6.9 147 16 101900 77
2002-09-25 12:25 51°20.639 2°55.56 8.3 152 16 101890 78
2002-09-25 12:26 51°20.427 2°55.377 7.2 160 16 101890 79
2002-09-25 12:27 51°20.227 2°55.17 9.1 158 16 101890 78
2002-09-25 12:28 51°20.049 2°54.927 8.9 151 15.9 101900 79
2002-09-25 12:29 51°19.866 2°54.684 10.9 163 15.9 101880 79
2002-09-25 12:30 51°19.678 2°54.45 8.4 171 15.9 101880 79
2002-09-25 12:31 51°19.489 2°54.224 8.4 160 15.8 101890 78
2002-09-25 12:32 51°19.302 2°53.995 9.3 161 15.8 101880 78
2002-09-25 12:33 51°19.112 2°53.767 7.5 158 15.8 101880 79
2002-09-25 12:34 51°18.923 2°53.545 10.8 168 15.8 101880 78
2002-09-25 12:35 51°18.739 2°53.322 9.3 165 15.8 101890 78
2002-09-25 12:36 51°18.553 2°53.1 7.1 154 15.8 101880 78
2002-09-25 12:37 51°18.366 2°52.881 8.6 154 15.8 101880 78
2002-09-25 12:38 51°18.18 2°52.666 8.9 158 15.8 101890 78
2002-09-25 12:39 51°17.99 2°52.458 7.1 151 15.8 101890 78
2002-09-25 12:40 51°17.769 2°52.34 4.1 142 15.8 101890 78
2002-09-25 12:41 51°17.531 2°52.301 3.2 122 15.8 101890 78
2002-09-25 12:42 51°17.292 2°52.321 1.1 134 15.8 101890 78
2002-09-25 12:43 51°17.063 2°52.447 0.2 315 15.9 101890 78
2002-09-25 12:44 51°16.846 2°52.609 0.7 358 16 101890 78
2002-09-25 12:45 51°16.63 2°52.783 1.3 9 16.1 101890 78
2002-09-25 12:46 51°16.412 2°52.944 2.3 346 16 101890 77
2002-09-25 12:47 51°16.199 2°53.101 2.3 23 16 101890 77
2002-09-25 12:48 51°15.987 2°53.277 1 359 15.9 101890 77
2002-09-25 12:49 51°15.774 2°53.454 0.8 326 16 101890 78
2002-09-25 12:50 51°15.572 2°53.653 3.8 24 16 101890 77
2002-09-25 12:51 51°15.369 2°53.856 0.8 291 15.9 101890 77
2002-09-25 12:52 51°15.178 2°54.082 3.3 358 16 101880 77
2002-09-25 12:53 51°14.986 2°54.305 0.6 352 15.9 101880 77
2002-09-25 12:54 51°14.789 2°54.513 1.9 16 16 101880 77
2002-09-25 12:55 51°14.608 2°54.712 3.7 9 15.9 101870 77
2002-09-25 12:56 51°14.446 2°54.937 3.1 22 16 101870 77